Ride Results

Far-A-Way Saturday (15-04-2006)
Ride distance: 84.0 km

Outcomes - Far-A-Way Saturday (15-04-2006)
Division No. of Entries Retired / DNE Completed Withdrawn Ineligible V/O Percentage Completed
HW 14 - 5 2 - 7 35.71%
MW 43 - 32 5 - 6 74.42%
LW 32 - 26 - - 6 81.25%
JN 7 - 7 - - - 100.00%
Totals 96 - 70 7 - 19 72.92%
Results - Far-A-Way Saturday (15-04-2006)
No. Rider Horse Place Time Leg Speeds Total
Km/Hr
H/R bpm
Heavyweight
56 Ron Haigh Rustan Raahbu-Klan 1 7:59:00 11.9, 9.1 10.52 42, 48, 49 (Avg:48)
13 John Simpson Charaway Chaivu 2 8:47:00 10.2, 8.8 9.56 30, 40, 47 (Avg:43)
9 Vance Ratapu Jessie 3 8:48:00 11.2, 8.0 9.55 31, 38, 56 (Avg:47)
4 Dick Collyer Crystabarbara 4 8:56:00 10.6, 8.2 9.40 26, 44, 50 (Avg:47)
64 Mick Hill Harb Sparkling Miss 5 8:58:00 9.9, 8.7 9.37 37, 44, 53 (Avg:48)
23 Hal Archer Dunwingeri Nova Heart Rate L2 0:00:00 10.6, 8.2 - 33, 51, 80 (Avg:65)
60 Nick Fry Rivalyn Winette Heart Rate L2 0:00:00 9.9, 8.7 - 37, 45, 70 (Avg:57)
15 Adrian Hope-Hodgetts Agecroft Israel Heart Rate L2 0:00:00 14.3, 7.0 - 28, 54, 66 (Avg:60)
77 Frank Scadding Allyndah Scinalli Widthdrawn L2 0:00:00 - - 35, 48, 46 (Avg:47)
52 Kirsten Stephen Bourhani Olympus Lame L2 0:00:00 9.3, 37.9 - 36, 46, 43 (Avg:44)
43 Roger Warner Hillbrae Kahalan Lame L2 0:00:00 9.2, 8.4 - 39, 46, 47 (Avg:46)
12 Len Law Ming-Gah Teranus Heart Rate L1 0:00:00 13.6 - 37, 62 (Avg:62)
24 Leanne Le Claire Licketty Split Widthdrawn L1 0:00:00 - - 33, 54 (Avg:54)
87 Craig Renner Edenfels Zephyr Lame L1 0:00:00 14.3 - 30, 54 (Avg:54)
Middleweight
93 Narelle Childs Zara Farm Ayesha 1 5:41:00 15.4, 14.0 14.78 40, 47, 60 (Avg:53)
79 Georgia Zischke Bashan Abner 1 5:41:00 15.4, 14.0 14.78 34, 44, 60 (Avg:52)
26 Laura Axsentieff Taljarri Moonlight Pharoah 3 6:43:00 13.0, 11.9 12.51 34, 48, 54 (Avg:51)
25 Lauren Cox Brookleigh Ricardo 3 6:43:00 13.0, 11.9 12.51 36, 50, 56 (Avg:53)
11 Marilyn Wade Nikki 5 6:50:00 13.6, 10.9 12.29 27, 41, 60 (Avg:50)
19 Fiona Fenech Belgari Fidesz 6 6:58:00 14.0, 10.3 12.06 40, 47, 50 (Avg:48)
81 Raewyn Carter Mt Eerwah Siridion 7 7:08:00 14.0, 9.8 11.78 32, 42, 44 (Avg:43)
45 Jackie Gilks Araboona Jabbar 8 7:12:00 15.4, 9.0 11.67 35, 49, 51 (Avg:50)
44 Jackie Swan Longrun Domino 9 7:29:00 12.8, 9.7 11.22 28, 33, 53 (Avg:43)
21 Francis Haack Bacchante Colorado 10 7:34:00 11.9, 10.1 11.10 30, 44, 52 (Avg:48)
88 Craig Redgwell Edenfels Count Redmond 11 7:55:00 12.4, 9.0 10.61 28, 46, 51 (Avg:48)
8 Ouida Ratapu Bashan Malachi 12 8:18:00 11.2, 9.0 10.12 31, 47, 60 (Avg:53)
76 Sue Daniell Gurangada Khavalier 13 8:20:00 10.6, 9.4 10.08 36, 46, 60 (Avg:53)
38 Gillian Grant Euraman Kara Cobar 13 8:20:00 9.7, 10.5 10.08 36, 51, 60 (Avg:55)
50 Steve Gray Raaward Samaya 13 8:20:00 11.9, 8.4 10.08 44, 47, 55 (Avg:51)
49 Bruce Seaward Monterra Ibn Silver Magic 13 8:20:00 11.9, 8.4 10.08 28, 48, 52 (Avg:50)
58 Jo Stewart Maxus Tiger Lily 17 8:35:00 12.6, 7.7 9.79 30, 45, 56 (Avg:50)
68 Donna Brooker Hirstglen Maybe 18 8:42:00 10.1, 9.1 9.66 25, 49, 52 (Avg:50)
36 Louis Botha Onyx Forego 19 8:47:00 9.8, 9.2 9.56 48, 46, 46 (Avg:46)
37 Jaimee Foulsham Blue Bronco 19 8:47:00 9.8, 9.2 9.56 32, 39, 52 (Avg:45)
42 Jennifer Gilbertson Stonella Geisha Girl 19 8:47:00 9.8, 9.2 9.56 36, 50, 58 (Avg:54)
20 Jean Taylor Nerim 19 8:47:00 10.2, 8.8 9.56 32, 44, 49 (Avg:46)
62 Kathleen Roberts Shian 23 8:49:00 10.5, 8.5 9.53 36, 46, 57 (Avg:51)
41 Vivian Hollins Georgia 24 8:50:00 10.1, 8.8 9.51 37, 40, 49 (Avg:44)
39 Jenny Noffke Sailor 24 8:50:00 10.1, 8.8 9.51 33, 41, 58 (Avg:49)
69 Bridget Nottle Keisha 26 8:52:00 9.1, 9.8 9.47 32, 40, 51 (Avg:45)
22 Clinton Cole Ernlea Winsilcon 27 8:55:00 10.2, 8.5 9.42 43, 57 (Avg:50)
91 Jaime Mansbridge Shannonwood Ezar 27 8:55:00 10.0, 8.7 9.42 43, 44, 54 (Avg:49)
5 Jillian Crowley Crystalara 29 8:56:00 10.6, 8.2 9.40 37, 48, 55 (Avg:51)
61 Jayne Fry Rivalyn Shianne 30 8:58:00 9.9, 8.7 9.37 35, 40, 57 (Avg:48)
17 Sally Viney Blue Bonnet 31 9:23:00 10.2, 7.7 8.95 33, 50, 57 (Avg:53)
54 Deborah Sheather Nathham Park Thammus 32 9:27:00 9.5, 8.1 8.89 43, 50, 58 (Avg:54)
70 Simone Krahnen Tallaroon October Whisper Widthdrawn L2 0:00:00 - - 37, 42, 51 (Avg:46)
33 Paul Lengronne Monty Heart Rate L2 0:00:00 11.4, 7.7 - 35, 51, 62 (Avg:56)
59 Donna Renaud Johroy Custom Made Lame L2 0:00:00 11.4, 7.7 - 39, 45, 49 (Avg:47)
51 Dean Stephen Splitters Creek Watch the Tempo Widthdrawn L2 0:00:00 - - 32, 47, 46 (Avg:46)
96 Bill Ward Jemalii Heart Rate L2 0:00:00 12.0, 9.3 - 39, 51, 69 (Avg:60)
95 Olga Bartlett Cingala Royalle Lame L1 0:00:00 9.1 - 42, 46 (Avg:46)
85 Graysen Clarke Ejay Chevage Widthdrawn L1 0:00:00 - - 45, 55 (Avg:55)
86 Mark Harris Latif Jemima Widthdrawn L1 0:00:00 - - 46 (Avg:46)
84 Emma Holland True Faith Lame L1 0:00:00 10.6 - 31, 46 (Avg:46)
16 Jan Tyrrell Fabio Widthdrawn L1 0:00:00 - - 27, 46 (Avg:46)
10 Jacky Clarke Kalkadoon Sequin Gall or injury P/R 0:00:00 - - 33
Lightweight
92 Anne Criner Taliser 1 5:41:00 15.4, 14.0 14.78 25, 43, 58 (Avg:50)
94 Melodie Churchill Shahreena 'Al Amira 2 5:42:00 16.6, 12.9 14.74 30, 35, 51 (Avg:43)
82 Jeanna Maher Red Gum Trinket 2 5:42:00 16.6, 12.9 14.74 28, 41, 55 (Avg:48)
57 Anne Jones Carnarvon Cavalier 4 6:18:00 14.2, 12.3 13.33 28, 42, 58 (Avg:50)
14 Sasha Savage Tubbarubba Cheval 5 6:41:00 13.4, 11.6 12.57 35, 50, 51 (Avg:50)
65 Terri Anderson Mithras Emerald 6 7:00:00 11.8, 12.1 12.00 37, 49, 55 (Avg:52)
28 Kaylea Maher Meltharina Mabran 7 7:08:00 12.7, 10.8 11.78 34, 43, 48 (Avg:45)
75 Robyn Brazel Thomas 8 7:18:00 13.2, 9.9 11.51 38, 48, 60 (Avg:54)
83 Tomarra Serjeant Winwood Battai 9 7:24:00 10.6, 12.3 11.35 33, 36, 44 (Avg:40)
34 Sarrah Lee Fenech Deep Forest Contest 10 7:31:00 12.2, 10.0 11.18 40, 46, 58 (Avg:52)
6 Della Weier Kahshah 11 7:39:00 12.7, 9.4 10.98 31, 40, 48 (Avg:44)
78 Molly Hall Tracallan Dante 12 8:12:00 12.5, 8.3 10.24 36, 41, 55 (Avg:48)
74 Aanja Hamelink Captain's Creek Cruise 13 8:13:00 12.7, 8.2 10.22 29, 40, 52 (Avg:46)
73 Karen Winkel Jonmar Zara 13 8:13:00 12.7, 8.2 10.22 46, 46, 55 (Avg:50)
90 Cassie Saunders Redwood Lodge Fire Walker 15 8:14:00 12.4, 8.3 10.20 34, 51, 60 (Avg:55)
47 Kylie Reid Cherox Magnum 16 8:20:00 11.9, 8.4 10.08 33, 39, 45 (Avg:42)
48 Carolyn Strahan Dunwingeri Saahma 16 8:20:00 11.9, 8.4 10.08 34, 42, 51 (Avg:46)
67 Donna Roberts Hirstglen Solitare 18 8:42:00 10.1, 9.1 9.66 36, 40, 60 (Avg:50)
40 Ellie Hill Narrawa Astron 19 8:47:00 9.8, 9.2 9.56 36, 34, 43 (Avg:38)
32 Sonya Ryan Abrock Ned 20 8:49:00 10.5, 8.5 9.53 40, 42, 60 (Avg:51)
3 Bridget Campbell Cameo Kinshaza 21 8:55:00 10.2, 8.5 9.42 38, 41, 48 (Avg:44)
35 Yuko Crease Kai Hai Sterling Aaramis 22 8:58:00 9.5, 9.1 9.37 38, 44, 41 (Avg:42)
63 Karen Hill Rivelyn Flicker 22 8:58:00 9.9, 8.7 9.37 34, 46, 55 (Avg:50)
66 Sachiko Murai Shardell Shahbarnah Golden 22 8:58:00 9.5, 9.1 9.37 31, 48, 51 (Avg:49)
18 Corinne Rees Kira 25 9:23:00 10.6, 7.5 8.95 36, 46, 54 (Avg:50)
53 Shelley-ann Kimber Omani Bondalier 26 9:27:00 9.5, 8.1 8.89 36, 42, 42 (Avg:42)
89 Elise Gough Rhovanion Legolas Heart Rate L2 0:00:00 9.1, 8.5 - 42, 55, 62 (Avg:58)
2 Christine Plucknett Montview Solitare Heart Rate L2 0:00:00 14.0, 9.7 - 44, 52, 64 (Avg:58)
46 Leigh Rich Dmar Diplomats Image Heart Rate L2 0:00:00 13.0, 8.5 - 38, 44, 71 (Avg:57)
30 Jocelyn Barnes Dandaloo Nazika Lame L1 0:00:00 12.7 - 31, 44 (Avg:44)
27 Ashlee Shafer Adbarina Shaklas Shadow Heart Rate L1 0:00:00 10.9 - 43, 63 (Avg:63)
29 Janelle Weise Sahala Afrikhaan Lame L1 0:00:00 12.7 - 32, 52 (Avg:52)
Junior
71 Erin Krahnen Lenannlaw Hollywood 1 5:41:00 15.4, 14.0 14.78 30, 39, 55 (Avg:47)
72 Colleen Krahnen Wywurri Starlight 2 6:18:00 14.2, 12.3 13.33 37, 49, 54 (Avg:51)
1 Haley Jean Steuer Milora Park Boomer 3 6:32:00 13.1, 12.5 12.86 24, 39, 49 (Avg:44)
55 Saasha Grogan Barbarella 4 7:08:00 12.7, 10.8 11.78 28, 45, 50 (Avg:47)
7 Terrence Weier Jayhal Ghost 5 7:39:00 12.7, 9.4 10.98 35, 43, 49 (Avg:46)
80 Elke Zischke Star of Bell 6 7:57:00 12.5, 8.8 10.57 37, 46, 52 (Avg:49)
31 Ashley Ross El Sarem Stelka 7 8:58:00 9.5, 9.1 9.37 32, 50, 58 (Avg:54)